createdAt,value
2023-03-10T00:01:36.139Z,14.82
2023-03-10T00:04:02.338Z,14.20
2023-03-10T00:06:29.496Z,14.95
2023-03-10T00:08:55.356Z,14.57
2023-03-10T00:11:21.603Z,14.48
2023-03-10T00:13:47.397Z,14.38
2023-03-10T00:16:22.445Z,12.90
2023-03-10T00:18:48.380Z,14.18
2023-03-10T00:21:15.367Z,12.02
2023-03-10T00:23:41.179Z,12.57
2023-03-10T00:26:06.893Z,12.95
2023-03-10T00:28:32.632Z,12.63
2023-03-10T00:31:05.872Z,11.73
2023-03-10T00:33:32.847Z,11.52
2023-03-10T00:36:02.763Z,12.25
2023-03-10T00:38:28.658Z,11.52
2023-03-10T00:40:58.405Z,11.93
2023-03-10T00:43:24.118Z,11.63
2023-03-10T00:45:49.844Z,12.57
2023-03-10T00:48:15.561Z,11.18
2023-03-10T00:50:41.308Z,11.90
2023-03-10T00:53:07.073Z,12.30
2023-03-10T00:55:32.791Z,11.40
2023-03-10T00:57:58.522Z,11.43
2023-03-10T01:00:24.386Z,12.07
2023-03-10T01:02:52.191Z,11.75
2023-03-10T01:05:18.289Z,11.60
2023-03-10T01:07:44.084Z,13.20
2023-03-10T01:10:10.779Z,12.20
2023-03-10T01:12:36.541Z,12.93
2023-03-10T01:15:02.312Z,11.77
2023-03-10T01:17:28.048Z,11.38
2023-03-10T01:19:53.778Z,12.40
2023-03-10T01:22:19.529Z,12.15
2023-03-10T01:24:45.588Z,10.95
2023-03-10T01:27:11.308Z,13.05
2023-03-10T01:29:37.060Z,12.05
2023-03-10T01:32:02.972Z,12.65
2023-03-10T01:34:28.703Z,12.27
2023-03-10T01:36:54.415Z,11.80
2023-03-10T01:39:20.154Z,11.00
2023-03-10T01:41:45.973Z,12.25
2023-03-10T01:44:15.915Z,11.43
2023-03-10T01:46:43.968Z,11.75
2023-03-10T01:49:23.739Z,12.00
2023-03-10T01:52:02.776Z,9.73
2023-03-10T01:54:32.038Z,10.38
2023-03-10T01:56:57.961Z,11.35
2023-03-10T01:59:25.192Z,10.50
2023-03-10T02:01:51.299Z,11.30
2023-03-10T02:04:24.251Z,10.75
2023-03-10T02:06:50.695Z,11.05
2023-03-10T02:09:17.905Z,12.40
2023-03-10T02:11:44.695Z,9.63
2023-03-10T02:14:10.454Z,11.02
2023-03-10T02:16:36.324Z,12.35
2023-03-10T02:19:03.769Z,12.07
2023-03-10T02:21:35.256Z,11.38
2023-03-10T02:24:12.946Z,11.50
2023-03-10T02:26:45.363Z,11.65
2023-03-10T02:29:16.936Z,9.85
2023-03-10T02:31:43.500Z,10.35
2023-03-10T02:34:09.423Z,10.90
2023-03-10T02:36:35.291Z,10.57
2023-03-10T02:39:01.017Z,11.02
2023-03-10T02:41:28.603Z,10.82
2023-03-10T02:43:55.547Z,9.20
2023-03-10T02:46:21.850Z,9.38
2023-03-10T02:48:47.650Z,9.95
2023-03-10T02:51:18.898Z,10.80
2023-03-10T02:53:44.650Z,9.77
2023-03-10T02:56:10.804Z,8.88
2023-03-10T02:58:36.562Z,9.20
2023-03-10T03:01:04.360Z,9.52
2023-03-10T03:03:30.298Z,9.05
2023-03-10T03:05:56.400Z,8.63
2023-03-10T03:08:22.392Z,9.38
2023-03-10T03:10:48.517Z,9.30
2023-03-10T03:13:14.578Z,8.65
2023-03-10T03:15:40.469Z,7.35
2023-03-10T03:18:06.526Z,7.68
2023-03-10T03:20:33.096Z,8.38
2023-03-10T03:22:58.891Z,8.23
2023-03-10T03:25:26.104Z,7.75
2023-03-10T03:27:51.868Z,8.93
2023-03-10T03:30:22.122Z,8.23
2023-03-10T03:32:48.089Z,7.15
2023-03-10T03:35:15.796Z,7.75
2023-03-10T03:37:41.822Z,6.82
2023-03-10T03:40:13.868Z,6.80
2023-03-10T03:42:40.592Z,7.80
2023-03-10T03:45:07.400Z,7.57
2023-03-10T03:47:33.153Z,7.95
2023-03-10T03:49:58.870Z,7.72
2023-03-10T03:52:24.574Z,7.55
2023-03-10T03:54:50.333Z,7.22
2023-03-10T03:57:16.059Z,6.75
2023-03-10T03:59:42.242Z,7.15
2023-03-10T04:02:08.107Z,6.28
2023-03-10T04:04:33.892Z,7.35
2023-03-10T04:07:00.532Z,11.02
2023-03-10T04:09:26.529Z,7.65
2023-03-10T04:11:52.301Z,7.43
2023-03-10T04:14:18.035Z,7.07
2023-03-10T04:16:44.033Z,6.90
2023-03-10T04:19:10.091Z,7.70
2023-03-10T04:21:35.956Z,7.10
2023-03-10T04:24:02.095Z,6.60
2023-03-10T04:26:28.362Z,9.35
2023-03-10T04:28:54.144Z,8.75
2023-03-10T04:31:21.196Z,7.07
2023-03-10T04:33:47.222Z,7.97
2023-03-10T04:36:12.992Z,8.27
2023-03-10T04:38:38.840Z,6.47
2023-03-10T04:41:04.637Z,7.43
2023-03-10T04:43:30.714Z,7.18
2023-03-10T04:45:56.712Z,7.65
2023-03-10T04:48:23.729Z,8.35
2023-03-10T04:50:56.499Z,7.15
2023-03-10T04:53:22.404Z,7.60
2023-03-10T04:55:48.176Z,7.28
2023-03-10T04:58:13.911Z,6.97
2023-03-10T05:00:50.082Z,7.22
2023-03-10T05:03:22.307Z,6.93
2023-03-10T05:05:48.065Z,7.65
2023-03-10T05:08:13.946Z,6.82
2023-03-10T05:10:40.389Z,6.82
2023-03-10T05:13:07.486Z,6.10
2023-03-10T05:15:33.885Z,7.75
2023-03-10T05:18:12.140Z,6.47
2023-03-10T05:20:40.734Z,7.38
2023-03-10T05:23:06.580Z,8.10
2023-03-10T05:25:32.547Z,6.97
2023-03-10T05:27:58.424Z,7.50
2023-03-10T05:30:24.401Z,6.47
2023-03-10T05:32:52.034Z,6.38
2023-03-10T05:35:18.516Z,6.72
2023-03-10T05:37:44.500Z,7.13
2023-03-10T05:40:13.132Z,7.00
2023-03-10T05:42:39.498Z,7.50
2023-03-10T05:45:06.428Z,7.47
2023-03-10T05:47:33.344Z,8.20
2023-03-10T05:49:59.860Z,7.63
2023-03-10T05:52:25.866Z,6.47
2023-03-10T05:54:51.670Z,6.43
2023-03-10T05:57:17.480Z,6.82
2023-03-10T05:59:43.588Z,6.38
2023-03-10T06:02:09.443Z,6.70
2023-03-10T06:04:35.381Z,10.38
2023-03-10T06:07:09.625Z,7.60
2023-03-10T06:09:35.429Z,9.48
2023-03-10T06:12:01.607Z,8.05
2023-03-10T06:14:29.035Z,7.47
2023-03-10T06:16:55.785Z,7.80
2023-03-10T06:19:57.009Z,7.38
2023-03-10T06:22:32.246Z,8.32
2023-03-10T06:24:58.326Z,8.15
2023-03-10T06:27:24.235Z,8.25
2023-03-10T06:32:33.636Z,9.18
2023-03-10T06:37:39.992Z,9.05
2023-03-10T06:40:08.181Z,8.80
2023-03-10T06:42:34.485Z,8.20
2023-03-10T06:45:00.835Z,8.77
2023-03-10T06:47:33.100Z,8.27
2023-03-10T06:50:01.163Z,8.77
2023-03-10T06:52:34.401Z,7.90
2023-03-10T06:55:01.037Z,9.48
2023-03-10T06:57:27.837Z,8.77
2023-03-10T06:59:53.920Z,8.85
2023-03-10T07:02:20.666Z,9.02
2023-03-10T07:04:46.730Z,10.02
2023-03-10T07:07:15.600Z,8.43
2023-03-10T07:09:43.961Z,8.13
2023-03-10T07:12:14.835Z,8.20
2023-03-10T07:20:32.824Z,7.95
2023-03-10T07:22:58.829Z,9.20
2023-03-10T07:25:30.529Z,10.48
2023-03-10T07:27:59.045Z,9.68
2023-03-10T07:36:15.184Z,8.27
2023-03-10T07:38:42.053Z,8.57
2023-03-10T07:41:09.487Z,7.60
2023-03-10T07:43:35.917Z,9.23
2023-03-10T07:46:06.072Z,8.88
2023-03-10T07:48:49.509Z,8.98
2023-03-10T07:51:15.441Z,9.60
2023-03-10T07:56:51.029Z,9.88
2023-03-10T07:59:17.275Z,9.20
2023-03-10T08:01:53.056Z,8.55
2023-03-10T08:04:24.919Z,9.43
2023-03-10T08:06:51.341Z,8.10
2023-03-10T08:09:17.214Z,8.48
2023-03-10T08:11:43.155Z,7.90
2023-03-10T08:14:09.077Z,7.80
2023-03-10T08:16:35.579Z,8.38
2023-03-10T08:22:30.679Z,9.50
2023-03-10T08:24:58.837Z,9.20
2023-03-10T08:27:28.787Z,8.90
2023-03-10T08:29:55.029Z,8.82
2023-03-10T08:32:20.905Z,8.80
2023-03-10T08:34:48.665Z,8.48
2023-03-10T08:37:14.498Z,6.70
2023-03-10T08:39:40.672Z,8.55
2023-03-10T08:42:06.626Z,7.95
2023-03-10T08:44:32.481Z,7.82
2023-03-10T08:46:58.480Z,7.20
2023-03-10T08:49:24.787Z,7.32
2023-03-10T08:51:50.859Z,6.18
2023-03-10T08:54:18.880Z,6.05
2023-03-10T08:56:44.681Z,5.90
2023-03-10T08:59:11.111Z,4.80
2023-03-10T09:01:37.245Z,5.63
2023-03-10T09:04:04.310Z,3.58
2023-03-10T09:06:30.530Z,3.20
2023-03-10T09:08:56.830Z,3.10
2023-03-10T09:11:25.170Z,3.50
2023-03-10T09:13:51.445Z,2.90
2023-03-10T09:16:20.112Z,2.53
2023-03-10T09:18:49.440Z,2.78
2023-03-10T09:21:16.194Z,1.40
2023-03-10T09:23:43.550Z,1.30
2023-03-10T09:26:11.617Z,1.65
2023-03-10T09:28:37.660Z,1.63
2023-03-10T09:31:04.274Z,1.73
2023-03-10T09:33:31.808Z,1.60
2023-03-10T09:36:06.512Z,1.70
2023-03-10T09:38:33.044Z,1.50
2023-03-10T09:41:02.152Z,1.40
2023-03-10T09:43:29.469Z,1.63
2023-03-10T09:46:15.735Z,1.40
2023-03-10T09:48:51.209Z,1.98
2023-03-10T09:51:38.751Z,1.40
2023-03-10T09:54:23.055Z,1.70
2023-03-10T09:56:50.839Z,1.98
2023-03-10T09:59:21.682Z,2.17
2023-03-10T10:01:52.330Z,3.38
2023-03-10T10:04:42.414Z,3.33
2023-03-10T10:07:20.413Z,2.63
2023-03-10T10:09:50.530Z,3.83
2023-03-10T10:12:18.269Z,4.22
2023-03-10T10:14:57.263Z,4.13
2023-03-10T10:17:35.586Z,4.90
2023-03-10T10:20:16.434Z,4.97
2023-03-10T10:22:51.625Z,5.53
2023-03-10T10:25:22.097Z,4.53
2023-03-10T10:27:53.372Z,5.20
2023-03-10T10:30:49.837Z,4.97
2023-03-10T10:33:16.915Z,4.93
2023-03-10T10:36:00.262Z,5.20
2023-03-10T10:41:22.592Z,4.88
2023-03-10T10:46:32.693Z,4.57
2023-03-10T10:49:09.994Z,5.32
2023-03-10T11:11:12.098Z,7.97
2023-03-10T11:13:55.648Z,6.85
2023-03-10T11:16:36.064Z,8.57
2023-03-10T11:19:09.014Z,8.77
2023-03-10T11:38:29.183Z,9.80
2023-03-10T11:40:59.876Z,10.27
2023-03-10T11:49:30.641Z,9.57
2023-03-10T11:52:10.180Z,9.57
2023-03-10T11:54:39.383Z,10.23
2023-03-10T11:57:29.931Z,8.60
2023-03-10T12:02:45.474Z,8.02
2023-03-10T12:08:15.409Z,8.52
2023-03-10T13:06:30.178Z,5.45
2023-03-10T13:23:27.219Z,5.45
2023-03-10T13:25:57.450Z,4.28
2023-03-10T13:28:23.849Z,4.78
2023-03-10T13:42:43.454Z,4.50
2023-03-10T13:45:13.432Z,4.70
2023-03-10T13:47:45.012Z,4.20
2023-03-10T13:50:16.283Z,4.20
2023-03-10T13:52:53.919Z,4.70
2023-03-10T13:55:19.793Z,4.20
2023-03-10T13:57:53.780Z,4.10
2023-03-10T14:00:25.202Z,3.70
2023-03-10T14:02:54.593Z,5.00
2023-03-10T14:08:25.577Z,3.97
2023-03-10T14:17:04.459Z,4.25
2023-03-10T14:19:38.339Z,4.18
2023-03-10T14:22:21.155Z,4.63
2023-03-10T14:24:47.212Z,3.50
2023-03-10T14:27:15.265Z,4.13
2023-03-10T14:29:47.666Z,3.67
2023-03-10T14:32:14.568Z,3.42
2023-03-10T14:34:40.773Z,3.35
2023-03-10T14:37:07.166Z,3.72
2023-03-10T14:39:36.422Z,3.80
2023-03-10T14:42:02.797Z,3.63
2023-03-10T14:44:28.975Z,3.97
2023-03-10T14:46:55.445Z,4.25
2023-03-10T14:52:05.677Z,3.72
2023-03-10T14:54:31.512Z,3.67
2023-03-10T14:57:05.015Z,3.95
2023-03-10T14:59:31.255Z,4.72
2023-03-10T15:01:59.450Z,3.65
2023-03-10T15:04:37.568Z,4.47
2023-03-10T15:07:03.466Z,3.75
2023-03-10T15:09:31.291Z,3.85
2023-03-10T15:11:59.515Z,3.42
2023-03-10T15:14:27.594Z,3.90
2023-03-10T15:16:54.934Z,3.80
2023-03-10T15:19:22.625Z,4.60
2023-03-10T15:21:49.010Z,5.05
2023-03-10T15:24:15.213Z,4.80
2023-03-10T15:26:41.354Z,5.43
2023-03-10T15:29:07.480Z,4.75
2023-03-10T15:31:34.193Z,6.43
2023-03-10T15:34:13.645Z,6.30
2023-03-10T15:36:42.125Z,6.57
2023-03-10T15:39:08.924Z,6.88
2023-03-10T15:44:31.412Z,8.57
2023-03-10T15:46:59.602Z,7.35
2023-03-10T15:49:28.241Z,7.80
2023-03-10T15:52:05.891Z,8.18
2023-03-10T15:54:48.682Z,8.00
2023-03-10T15:57:15.789Z,7.40
2023-03-10T15:59:42.923Z,6.30
2023-03-10T16:02:09.908Z,7.68
2023-03-10T16:16:20.985Z,9.48
2023-03-10T16:19:12.712Z,8.57
2023-03-10T16:21:38.664Z,9.63
2023-03-10T16:24:10.906Z,9.38
2023-03-10T16:26:37.005Z,9.73
2023-03-10T16:40:08.231Z,10.38
2023-03-10T16:42:44.932Z,10.25
2023-03-10T16:45:15.421Z,10.20
2023-03-10T16:47:45.503Z,10.82
2023-03-10T16:59:22.698Z,9.23
2023-03-10T17:01:49.622Z,10.30
2023-03-10T17:04:15.558Z,9.13
2023-03-10T17:06:41.683Z,9.55
2023-03-10T17:35:16.676Z,9.27
2023-03-10T17:37:44.126Z,8.35
2023-03-10T17:40:14.917Z,8.80
2023-03-10T17:48:08.356Z,7.78
2023-03-10T17:50:35.287Z,7.32
2023-03-10T17:55:52.504Z,6.47
2023-03-10T17:58:19.279Z,6.93
2023-03-10T18:00:45.601Z,8.18
2023-03-10T18:03:14.346Z,6.93
2023-03-10T18:05:42.565Z,7.50
2023-03-10T18:08:08.730Z,5.95
2023-03-10T18:10:35.134Z,7.05
2023-03-10T18:13:02.506Z,7.03
2023-03-10T18:15:32.044Z,5.38
2023-03-10T18:17:59.975Z,7.43
2023-03-10T18:20:28.627Z,6.32
2023-03-10T18:22:57.266Z,6.80
2023-03-10T18:25:26.238Z,5.05
2023-03-10T18:28:09.237Z,6.65
2023-03-10T18:36:32.938Z,6.25
2023-03-10T18:39:04.015Z,6.60
2023-03-10T18:41:39.102Z,7.22
2023-03-10T18:44:06.357Z,7.40
2023-03-10T18:46:35.087Z,8.60
2023-03-10T18:49:01.347Z,8.38
2023-03-10T18:51:27.786Z,6.80
2023-03-10T18:53:54.068Z,7.13
2023-03-10T18:56:20.146Z,6.47
2023-03-10T18:58:47.597Z,6.85
2023-03-10T19:01:40.115Z,7.30
2023-03-10T19:04:53.061Z,6.97
2023-03-10T19:07:23.258Z,7.65
2023-03-10T19:09:53.718Z,5.97
2023-03-10T19:12:21.410Z,6.43
2023-03-10T19:14:52.260Z,6.07
2023-03-10T19:17:18.790Z,5.97
2023-03-10T19:19:46.021Z,6.35
2023-03-10T19:22:14.282Z,6.50
2023-03-10T19:24:40.341Z,7.43
2023-03-10T19:27:06.545Z,7.13
2023-03-10T19:32:13.598Z,7.57
2023-03-10T19:37:38.545Z,9.13
2023-03-10T19:40:07.864Z,8.05
2023-03-10T19:42:34.643Z,9.45
2023-03-10T19:45:01.164Z,9.98
2023-03-10T19:47:29.398Z,10.02
2023-03-10T19:49:55.498Z,11.05
2023-03-10T19:52:21.729Z,10.95
2023-03-10T19:54:48.019Z,10.77
2023-03-10T19:57:16.503Z,11.05
2023-03-10T19:59:43.578Z,11.10
2023-03-10T20:02:13.369Z,11.05
2023-03-10T20:05:07.452Z,11.30
2023-03-10T20:07:33.306Z,10.85
2023-03-10T20:10:05.678Z,10.45
2023-03-10T20:12:31.661Z,11.98
2023-03-10T20:14:59.730Z,12.60
2023-03-10T20:17:26.075Z,11.00
2023-03-10T20:19:52.047Z,12.07
2023-03-10T20:22:18.723Z,15.52
2023-03-10T20:24:47.733Z,12.13
2023-03-10T20:27:14.303Z,12.30
2023-03-10T20:29:42.221Z,12.43
2023-03-10T20:32:08.179Z,13.18
2023-03-10T20:34:34.380Z,11.95
2023-03-10T20:37:00.394Z,12.45
2023-03-10T20:39:27.212Z,11.82
2023-03-10T20:41:53.571Z,13.80
2023-03-10T20:44:19.837Z,11.80
2023-03-10T20:46:45.839Z,12.20
2023-03-10T20:49:12.300Z,11.32
2023-03-10T20:51:39.215Z,13.32
2023-03-10T20:54:05.737Z,12.43
2023-03-10T20:56:32.663Z,12.20
2023-03-10T20:59:00.999Z,12.70
2023-03-10T21:01:28.240Z,12.70
2023-03-10T21:04:09.276Z,12.25
2023-03-10T21:06:36.896Z,14.38
2023-03-10T21:09:10.475Z,10.88
2023-03-10T21:11:37.113Z,13.43
2023-03-10T21:14:03.251Z,12.13
2023-03-10T21:16:29.378Z,14.88
2023-03-10T21:18:56.742Z,13.35
2023-03-10T21:21:23.089Z,13.63
2023-03-10T21:23:49.211Z,8.45
2023-03-10T21:26:16.460Z,14.40
2023-03-10T21:28:42.980Z,15.55
2023-03-10T21:31:09.082Z,15.40
2023-03-10T21:33:43.873Z,14.93
2023-03-10T21:36:20.479Z,14.10
2023-03-10T21:38:48.810Z,16.23
2023-03-10T21:41:22.303Z,13.07
2023-03-10T21:43:48.702Z,14.27
2023-03-10T21:46:14.641Z,14.60
2023-03-10T21:48:40.894Z,13.35
2023-03-10T21:51:09.031Z,14.32
2023-03-10T21:53:35.120Z,14.13
2023-03-10T21:56:01.233Z,12.68
2023-03-10T21:58:27.529Z,12.25
2023-03-10T22:00:56.015Z,15.70
2023-03-10T22:03:22.127Z,16.60
2023-03-10T22:05:48.443Z,14.67
2023-03-10T22:08:14.557Z,16.00
2023-03-10T22:10:41.322Z,16.02
2023-03-10T22:13:08.306Z,15.68
2023-03-10T22:15:34.473Z,13.95
2023-03-10T22:18:00.328Z,15.20
2023-03-10T22:20:27.070Z,15.43
2023-03-10T22:22:53.664Z,13.75
2023-03-10T22:25:19.964Z,14.98
2023-03-10T22:27:48.317Z,14.38
2023-03-10T22:30:14.589Z,13.90
2023-03-10T22:32:40.612Z,14.43
2023-03-10T22:35:06.893Z,15.88
2023-03-10T22:37:32.900Z,13.82
2023-03-10T22:39:58.811Z,14.10
2023-03-10T22:42:24.605Z,14.20
2023-03-10T22:44:50.385Z,14.48
2023-03-10T22:47:16.903Z,13.50
2023-03-10T22:49:42.753Z,16.98
2023-03-10T22:52:09.374Z,10.93
2023-03-10T22:54:36.009Z,13.98
2023-03-10T22:57:01.826Z,11.95
2023-03-10T22:59:27.669Z,12.38
2023-03-10T23:01:53.628Z,10.73
2023-03-10T23:04:19.582Z,13.30
2023-03-10T23:06:45.842Z,8.90
2023-03-10T23:09:11.744Z,10.27
2023-03-10T23:11:37.840Z,13.40
2023-03-10T23:14:03.733Z,11.40
2023-03-10T23:16:33.916Z,8.30
2023-03-10T23:18:59.986Z,12.18
2023-03-10T23:21:25.907Z,11.77
2023-03-10T23:23:51.952Z,12.07
2023-03-10T23:26:17.725Z,11.98
2023-03-10T23:28:43.503Z,9.45
2023-03-10T23:31:09.556Z,11.53
2023-03-10T23:33:40.829Z,10.07
2023-03-10T23:36:06.835Z,8.80
2023-03-10T23:38:35.256Z,11.32
2023-03-10T23:41:01.349Z,12.83
2023-03-10T23:43:27.433Z,9.17
2023-03-10T23:45:53.305Z,9.00
2023-03-10T23:48:19.382Z,10.60
2023-03-10T23:50:46.908Z,10.70
2023-03-10T23:53:13.708Z,10.87
2023-03-10T23:55:40.596Z,10.23
2023-03-10T23:58:07.203Z,9.67
